Time;durP1;ratioP1;P1;durP2;ratioP2;P2;SDS_P1;SDS_P2;PMS_P1;PMS_P2;Temp;Humidity;BMP_temperature;BMP_pressure;BME280_temperature;BME280_humidity;BME280_pressure;Samples;Min_cycle;Max_cycle;Signal;HPM_P1;HPM_P2
2021/10/23 00:01:16;;;;;;;8.30;1.45;;;;;;;;;;5074413;28;20023;-62
2021/10/23 00:03:42;;;;;;;4.55;0.85;;;;;;;;;;5074229;28;20468;-61
2021/10/23 00:06:08;;;;;;;7.15;1.05;;;;;;;;;;5074355;28;20025;-62
2021/10/23 00:08:34;;;;;;;5.43;1.30;;;;;;;;;;5074321;28;20432;-62
2021/10/23 00:11:00;;;;;;;7.53;1.10;;;;;;;;;;5056255;28;20024;-62
2021/10/23 00:13:26;;;;;;;4.95;0.90;;;;;;;;;;5074103;28;20040;-62
2021/10/23 00:15:52;;;;;;;5.10;0.90;;;;;;;;;;5073800;28;20016;-62
2021/10/23 00:18:18;;;;;;;3.20;0.85;;;;;;;;;;5074046;28;20434;-62
2021/10/23 00:20:44;;;;;;;3.35;0.73;;;;;;;;;;5055957;28;20020;-62
2021/10/23 00:23:10;;;;;;;7.30;1.45;;;;;;;;;;5073989;28;20495;-62
2021/10/23 00:25:36;;;;;;;5.82;0.73;;;;;;;;;;5073608;28;20051;-62
2021/10/23 00:28:01;;;;;;;7.95;1.27;;;;;;;;;;5073790;28;20479;-63
2021/10/23 00:30:28;;;;;;;3.00;0.70;;;;;;;;;;5073706;28;20070;-62
2021/10/23 00:32:54;;;;;;;4.68;1.48;;;;;;;;;;5073764;28;20067;-62
2021/10/23 00:35:21;;;;;;;8.00;0.90;;;;;;;;;;5073730;28;20028;-62
2021/10/23 00:37:47;;;;;;;4.38;0.70;;;;;;;;;;5073834;28;20078;-62
2021/10/23 00:40:13;;;;;;;8.98;0.80;;;;;;;;;;5073708;28;20071;-63
2021/10/23 00:42:39;;;;;;;6.05;0.88;;;;;;;;;;5055633;28;20384;-62
2021/10/23 00:45:05;;;;;;;15.48;1.10;;;;;;;;;;5073311;28;20103;-62
2021/10/23 00:47:31;;;;;;;10.43;0.90;;;;;;;;;;5073345;28;20039;-62
2021/10/23 00:49:57;;;;;;;17.20;1.25;;;;;;;;;;5073600;28;20380;-62
2021/10/23 00:52:24;;;;;;;7.90;0.77;;;;;;;;;;5073384;28;20063;-62
2021/10/23 00:54:50;;;;;;;4.57;1.00;;;;;;;;;;5073134;28;20043;-62
2021/10/23 00:57:17;;;;;;;5.38;0.90;;;;;;;;;;5073197;28;20090;-62
2021/10/23 00:59:43;;;;;;;9.63;1.05;;;;;;;;;;5073125;28;20468;-62
2021/10/23 01:02:09;;;;;;;7.82;0.95;;;;;;;;;;5073290;28;20029;-62
2021/10/23 01:04:35;;;;;;;5.45;0.60;;;;;;;;;;5073183;28;20031;-62
2021/10/23 01:07:01;;;;;;;3.15;0.90;;;;;;;;;;5055175;28;20044;-63
2021/10/23 01:09:27;;;;;;;4.03;1.13;;;;;;;;;;5073176;28;20060;-62
2021/10/23 01:11:54;;;;;;;1.60;0.52;;;;;;;;;;5073107;28;20064;-62
2021/10/23 01:14:24;;;;;;;6.47;0.75;;;;;;;;;;5072967;28;20082;-62
2021/10/23 01:16:51;;;;;;;2.72;0.80;;;;;;;;;;5072886;28;20029;-62
2021/10/23 01:19:17;;;;;;;6.43;0.95;;;;;;;;;;5073042;28;20098;-62
2021/10/23 01:21:45;;;;;;;3.50;0.93;;;;;;;;;;5072884;28;20037;-62
2021/10/23 01:24:11;;;;;;;5.03;0.98;;;;;;;;;;5070146;28;20053;-62
2021/10/23 01:26:37;;;;;;;2.47;0.77;;;;;;;;;;5052646;28;20102;-62
2021/10/23 01:29:04;;;;;;;4.22;0.73;;;;;;;;;;5052959;28;20021;-63
2021/10/23 01:31:30;;;;;;;3.85;1.00;;;;;;;;;;5052653;28;20021;-62
2021/10/23 01:33:57;;;;;;;3.20;1.00;;;;;;;;;;5052856;28;20124;-62
2021/10/23 01:36:23;;;;;;;2.92;0.70;;;;;;;;;;5052689;28;20037;-62
2021/10/23 01:38:49;;;;;;;2.22;0.80;;;;;;;;;;5052704;28;20025;-62
2021/10/23 01:41:16;;;;;;;2.72;0.60;;;;;;;;;;5052731;28;20392;-62
2021/10/23 01:43:42;;;;;;;4.80;0.90;;;;;;;;;;5052899;28;20025;-62
2021/10/23 01:46:08;;;;;;;2.83;0.70;;;;;;;;;;5052318;28;20178;-62
2021/10/23 01:48:34;;;;;;;2.47;0.70;;;;;;;;;;5034771;28;20078;-62
2021/10/23 01:51:01;;;;;;;5.72;0.98;;;;;;;;;;5051938;28;20021;-62
2021/10/23 01:53:27;;;;;;;5.38;0.70;;;;;;;;;;5052502;28;20037;-63
2021/10/23 01:55:53;;;;;;;4.97;0.93;;;;;;;;;;5052354;28;20017;-62
2021/10/23 01:58:19;;;;;;;8.63;0.70;;;;;;;;;;5052390;28;20556;-62
2021/10/23 02:00:46;;;;;;;4.28;0.77;;;;;;;;;;5034453;28;20017;-62
2021/10/23 02:03:12;;;;;;;6.65;0.77;;;;;;;;;;5052366;28;20041;-63
2021/10/23 02:05:38;;;;;;;5.10;0.98;;;;;;;;;;5052400;28;20079;-62
2021/10/23 02:08:04;;;;;;;5.07;0.73;;;;;;;;;;5052322;28;20041;-62
2021/10/23 02:10:32;;;;;;;9.90;0.90;;;;;;;;;;5034488;28;20384;-63
2021/10/23 02:12:58;;;;;;;2.38;0.65;;;;;;;;;;5052151;28;20056;-63
2021/10/23 02:15:25;;;;;;;6.45;0.90;;;;;;;;;;5052239;28;20084;-62
2021/10/23 02:17:51;;;;;;;2.17;0.70;;;;;;;;;;5052476;28;20365;-62
2021/10/23 02:20:17;;;;;;;3.83;0.63;;;;;;;;;;5034613;28;20074;-62
2021/10/23 02:22:43;;;;;;;4.18;0.95;;;;;;;;;;5052060;28;20037;-62
2021/10/23 02:25:10;;;;;;;2.75;0.73;;;;;;;;;;5052167;28;20017;-63
2021/10/23 02:27:36;;;;;;;8.13;0.90;;;;;;;;;;5058453;28;20032;-63
2021/10/23 02:30:05;;;;;;;11.52;1.10;;;;;;;;;;5072176;28;20020;-62
2021/10/23 02:32:31;;;;;;;8.65;0.90;;;;;;;;;;5072468;28;20044;-63
2021/10/23 02:34:57;;;;;;;2.67;0.70;;;;;;;;;;5072141;28;20064;-62
2021/10/23 02:37:27;;;;;;;8.98;1.02;;;;;;;;;;5072148;28;20210;-62
2021/10/23 02:39:53;;;;;;;4.72;0.85;;;;;;;;;;5072037;28;20082;-62
2021/10/23 02:42:19;;;;;;;7.78;0.95;;;;;;;;;;5072106;28;20029;-62
2021/10/23 02:44:45;;;;;;;11.02;0.98;;;;;;;;;;5071879;28;20029;-62
2021/10/23 02:47:11;;;;;;;18.83;1.20;;;;;;;;;;5071858;28;20029;-63
2021/10/23 02:49:37;;;;;;;9.70;0.70;;;;;;;;;;5072249;28;20031;-63
2021/10/23 02:52:04;;;;;;;11.80;1.08;;;;;;;;;;5071882;28;20085;-63
2021/10/23 02:54:30;;;;;;;6.90;0.90;;;;;;;;;;5072074;28;20024;-63
2021/10/23 02:56:56;;;;;;;10.05;0.93;;;;;;;;;;5071764;28;20395;-63
2021/10/23 02:59:22;;;;;;;4.72;0.90;;;;;;;;;;5071789;28;20024;-63
2021/10/23 03:01:48;;;;;;;5.38;0.90;;;;;;;;;;5072804;28;20048;-63
2021/10/23 03:04:14;;;;;;;13.95;1.63;;;;;;;;;;5075532;28;20039;-63
2021/10/23 03:06:44;;;;;;;2.55;0.63;;;;;;;;;;5075242;28;20042;-63
2021/10/23 03:09:11;;;;;;;5.10;1.13;;;;;;;;;;5075443;28;20051;-63
2021/10/23 03:11:37;;;;;;;4.38;0.90;;;;;;;;;;5075591;28;20035;-63
2021/10/23 03:14:03;;;;;;;12.73;0.80;;;;;;;;;;5075280;28;20024;-63
2021/10/23 03:16:29;;;;;;;13.60;1.05;;;;;;;;;;5075415;28;20024;-63
2021/10/23 03:18:55;;;;;;;4.93;0.85;;;;;;;;;;5075167;28;20033;-63
2021/10/23 03:21:21;;;;;;;6.07;0.70;;;;;;;;;;5057288;28;20028;-64
2021/10/23 03:23:47;;;;;;;4.18;0.82;;;;;;;;;;5057068;28;20028;-64
2021/10/23 03:26:13;;;;;;;4.30;1.05;;;;;;;;;;5074873;28;20090;-64
2021/10/23 03:28:39;;;;;;;5.82;1.00;;;;;;;;;;5074755;28;20033;-64
2021/10/23 03:31:05;;;;;;;5.75;1.00;;;;;;;;;;5074979;28;20031;-64
2021/10/23 03:33:31;;;;;;;5.00;0.85;;;;;;;;;;5074982;28;20028;-61
2021/10/23 03:35:57;;;;;;;11.82;0.80;;;;;;;;;;5075223;28;20020;-62
2021/10/23 03:38:23;;;;;;;6.88;0.75;;;;;;;;;;5075221;28;20082;-62
2021/10/23 03:40:49;;;;;;;6.30;0.98;;;;;;;;;;5074853;28;20020;-62
2021/10/23 03:43:15;;;;;;;4.75;0.75;;;;;;;;;;5074687;28;20036;-63
2021/10/23 03:45:41;;;;;;;5.28;0.68;;;;;;;;;;5074816;28;20032;-63
2021/10/23 03:48:07;;;;;;;4.80;0.75;;;;;;;;;;5074611;28;20040;-62
2021/10/23 03:50:33;;;;;;;10.07;0.98;;;;;;;;;;5074680;28;20024;-62
2021/10/23 03:53:00;;;;;;;3.63;0.60;;;;;;;;;;5074639;28;20031;-62
2021/10/23 03:55:26;;;;;;;5.75;0.90;;;;;;;;;;5074490;28;20048;-62
2021/10/23 03:57:52;;;;;;;4.13;0.60;;;;;;;;;;5056506;28;20031;-62
2021/10/23 04:00:18;;;;;;;5.70;0.55;;;;;;;;;;5074624;28;20028;-63
2021/10/23 04:02:45;;;;;;;6.47;1.20;;;;;;;;;;5074631;28;20143;-63
2021/10/23 04:05:11;;;;;;;4.95;0.80;;;;;;;;;;5074577;28;20047;-62
2021/10/23 04:07:37;;;;;;;4.57;0.65;;;;;;;;;;5074195;28;20032;-62
2021/10/23 04:10:03;;;;;;;4.10;0.60;;;;;;;;;;5074591;28;20421;-63
2021/10/23 04:12:30;;;;;;;5.03;0.60;;;;;;;;;;5073698;28;20024;-62
2021/10/23 04:14:56;;;;;;;2.42;0.63;;;;;;;;;;5074282;28;20020;-62
2021/10/23 04:17:22;;;;;;;5.28;0.90;;;;;;;;;;5056332;28;20032;-63
2021/10/23 04:19:48;;;;;;;2.63;0.70;;;;;;;;;;5073960;28;20021;-63
2021/10/23 04:22:14;;;;;;;6.55;0.70;;;;;;;;;;5073946;28;20036;-62
2021/10/23 04:24:40;;;;;;;3.15;0.60;;;;;;;;;;5074098;28;20082;-63
2021/10/23 04:27:06;;;;;;;1.35;0.57;;;;;;;;;;5073275;28;20059;-63
2021/10/23 04:29:33;;;;;;;6.43;0.73;;;;;;;;;;5074005;28;20024;-62
2021/10/23 04:31:59;;;;;;;3.38;0.95;;;;;;;;;;5073705;28;20115;-63
2021/10/23 04:34:25;;;;;;;6.38;0.90;;;;;;;;;;5073575;28;20029;-63
2021/10/23 04:36:51;;;;;;;2.60;0.98;;;;;;;;;;5055711;28;20032;-62
2021/10/23 04:39:17;;;;;;;3.53;0.70;;;;;;;;;;5073638;28;20540;-62
2021/10/23 04:41:43;;;;;;;3.58;0.70;;;;;;;;;;5073536;28;20130;-62
2021/10/23 04:44:09;;;;;;;6.78;0.60;;;;;;;;;;5073461;28;20031;-62
2021/10/23 04:46:35;;;;;;;2.97;0.75;;;;;;;;;;5073484;28;20404;-62
2021/10/23 04:49:01;;;;;;;2.42;0.63;;;;;;;;;;5055743;28;20028;-63
2021/10/23 04:51:27;;;;;;;4.25;0.80;;;;;;;;;;5073582;28;20108;-63
2021/10/23 04:53:53;;;;;;;11.52;0.70;;;;;;;;;;5073357;28;20024;-63
2021/10/23 04:56:19;;;;;;;15.25;1.08;;;;;;;;;;5055461;28;20065;-62
2021/10/23 04:58:46;;;;;;;6.32;1.00;;;;;;;;;;5073268;28;20070;-63
2021/10/23 05:01:12;;;;;;;11.38;0.95;;;;;;;;;;5055823;28;20028;-63
2021/10/23 05:03:38;;;;;;;5.53;0.63;;;;;;;;;;5073173;28;20074;-62
2021/10/23 05:06:04;;;;;;;8.93;1.00;;;;;;;;;;5073255;28;20409;-63
2021/10/23 05:08:30;;;;;;;5.65;0.88;;;;;;;;;;5073146;28;20024;-63
2021/10/23 05:10:56;;;;;;;8.25;0.82;;;;;;;;;;5073097;28;20043;-62
2021/10/23 05:13:22;;;;;;;3.72;0.85;;;;;;;;;;5072789;28;20028;-62
2021/10/23 05:15:48;;;;;;;18.35;1.10;;;;;;;;;;5073103;28;20441;-63
2021/10/23 05:18:14;;;;;;;12.18;1.27;;;;;;;;;;5073069;28;20028;-62
2021/10/23 05:20:40;;;;;;;8.27;0.98;;;;;;;;;;5072911;28;20111;-63
2021/10/23 05:23:07;;;;;;;5.72;1.38;;;;;;;;;;5072905;28;20044;-63
2021/10/23 05:25:33;;;;;;;5.50;0.90;;;;;;;;;;5053815;28;20127;-62
2021/10/23 05:27:59;;;;;;;13.57;1.15;;;;;;;;;;5072659;28;20037;-62
2021/10/23 05:30:25;;;;;;;9.38;1.40;;;;;;;;;;5072829;28;20017;-62
2021/10/23 05:32:50;;;;;;;16.77;1.33;;;;;;;;;;5072915;28;20031;-63
2021/10/23 05:35:17;;;;;;;15.27;1.23;;;;;;;;;;5072668;28;20028;-62
2021/10/23 05:37:44;;;;;;;24.05;1.65;;;;;;;;;;5072859;28;20086;-62
2021/10/23 05:40:10;;;;;;;12.82;1.20;;;;;;;;;;5072713;28;20020;-63
2021/10/23 05:42:36;;;;;;;17.55;1.08;;;;;;;;;;5072692;28;20025;-64
2021/10/23 05:45:02;;;;;;;9.88;1.33;;;;;;;;;;5063542;28;20093;-62
2021/10/23 05:47:28;;;;;;;17.42;1.08;;;;;;;;;;5062012;28;20029;-62
2021/10/23 05:49:54;;;;;;;7.22;1.00;;;;;;;;;;5059006;28;20025;-63
2021/10/23 05:52:20;;;;;;;11.80;1.45;;;;;;;;;;5064318;28;20017;-62
2021/10/23 05:54:46;;;;;;;7.15;1.15;;;;;;;;;;5061728;28;20028;-62
2021/10/23 05:57:12;;;;;;;10.02;0.90;;;;;;;;;;5060988;28;20074;-62
2021/10/23 05:59:41;;;;;;;14.82;1.30;;;;;;;;;;5062032;28;20013;-62
2021/10/23 06:02:50;;;;;;;11.65;1.75;;;;;;;;;;5064539;28;20028;-62
2021/10/23 06:05:01;;;;;;;10.45;1.35;;;;;;;;;;5048328;28;20021;-62
2021/10/23 06:07:31;;;;;;;10.27;1.17;;;;;;;;;;5044148;28;20082;-62
2021/10/23 06:09:57;;;;;;;9.43;1.30;;;;;;;;;;5061414;28;20032;-62
2021/10/23 06:12:26;;;;;;;13.05;1.20;;;;;;;;;;5062783;28;20021;-62
2021/10/23 06:14:53;;;;;;;9.05;1.27;;;;;;;;;;5047367;28;20047;-62
2021/10/23 06:17:20;;;;;;;8.27;1.17;;;;;;;;;;5062450;28;20103;-62
2021/10/23 06:19:46;;;;;;;7.30;1.38;;;;;;;;;;5063152;28;20439;-62
2021/10/23 06:22:12;;;;;;;7.15;1.40;;;;;;;;;;5062409;28;20021;-63
2021/10/23 06:24:38;;;;;;;6.10;1.20;;;;;;;;;;5045696;28;20087;-62
2021/10/23 06:27:04;;;;;;;5.70;1.48;;;;;;;;;;5068331;28;20052;-63
2021/10/23 06:29:31;;;;;;;6.00;1.42;;;;;;;;;;5063370;28;20016;-63
2021/10/23 06:31:57;;;;;;;8.30;1.60;;;;;;;;;;5058578;28;20021;-62
2021/10/23 06:34:23;;;;;;;16.17;1.50;;;;;;;;;;5058507;28;20025;-63
2021/10/23 06:36:49;;;;;;;5.72;1.77;;;;;;;;;;5061454;28;21224;-62
2021/10/23 06:39:15;;;;;;;6.18;1.50;;;;;;;;;;5062628;28;20040;-62
2021/10/23 06:41:41;;;;;;;7.90;1.90;;;;;;;;;;5064403;28;20021;-62
2021/10/23 06:44:07;;;;;;;6.40;1.73;;;;;;;;;;5064447;28;20055;-62
2021/10/23 06:46:37;;;;;;;5.65;1.60;;;;;;;;;;5063366;28;20025;-62
2021/10/23 06:49:04;;;;;;;7.28;1.63;;;;;;;;;;5064601;28;20017;-63
2021/10/23 06:51:30;;;;;;;5.85;1.65;;;;;;;;;;5064955;28;20036;-62
2021/10/23 06:53:56;;;;;;;7.40;1.58;;;;;;;;;;5065457;28;20021;-62
2021/10/23 06:56:23;;;;;;;16.27;2.40;;;;;;;;;;5064402;28;20024;-62
2021/10/23 06:58:49;;;;;;;6.68;1.65;;;;;;;;;;5061870;28;20036;-62
2021/10/23 07:01:16;;;;;;;8.70;1.50;;;;;;;;;;5037722;28;20031;-63
2021/10/23 07:03:42;;;;;;;5.25;1.50;;;;;;;;;;5055882;28;20045;-62
2021/10/23 07:06:08;;;;;;;10.13;1.58;;;;;;;;;;5055952;28;20092;-61
2021/10/23 07:08:34;;;;;;;6.82;1.85;;;;;;;;;;5040823;28;20140;-62
2021/10/23 07:11:00;;;;;;;6.68;1.75;;;;;;;;;;5052925;28;20036;-62
2021/10/23 07:13:26;;;;;;;10.57;1.30;;;;;;;;;;5045890;28;20025;-62
2021/10/23 07:15:52;;;;;;;10.88;1.75;;;;;;;;;;5031962;28;20021;-61
2021/10/23 07:18:18;;;;;;;9.02;1.83;;;;;;;;;;5057780;28;20471;-62
2021/10/23 07:20:44;;;;;;;5.47;1.88;;;;;;;;;;5062757;28;20025;-63
2021/10/23 07:23:10;;;;;;;6.47;1.80;;;;;;;;;;5063010;28;20021;-62
2021/10/23 07:25:36;;;;;;;7.30;1.70;;;;;;;;;;5068382;28;20387;-62
2021/10/23 07:28:02;;;;;;;7.22;1.40;;;;;;;;;;5066471;28;20028;-62
2021/10/23 07:30:28;;;;;;;9.40;1.85;;;;;;;;;;5057512;28;20497;-62
2021/10/23 07:32:54;;;;;;;4.70;1.63;;;;;;;;;;5057323;28;20182;-61
2021/10/23 07:35:20;;;;;;;5.13;1.50;;;;;;;;;;5057625;28;20134;-62
2021/10/23 07:37:46;;;;;;;4.35;1.58;;;;;;;;;;5054086;28;20021;-62
2021/10/23 07:40:13;;;;;;;4.95;1.65;;;;;;;;;;5054359;28;20116;-62
2021/10/23 07:42:39;;;;;;;5.15;1.58;;;;;;;;;;5054478;28;20029;-62
2021/10/23 07:45:06;;;;;;;4.35;1.60;;;;;;;;;;5054852;28;20021;-62
2021/10/23 07:47:32;;;;;;;4.28;1.63;;;;;;;;;;5053577;28;20465;-62
2021/10/23 07:49:58;;;;;;;4.35;1.50;;;;;;;;;;5054291;28;20021;-62
2021/10/23 07:52:24;;;;;;;5.25;1.45;;;;;;;;;;5054293;28;20037;-62
2021/10/23 07:54:50;;;;;;;10.15;1.60;;;;;;;;;;5054177;28;20198;-62
2021/10/23 07:57:17;;;;;;;4.32;1.60;;;;;;;;;;5049799;28;20127;-62
2021/10/23 07:59:44;;;;;;;4.53;1.75;;;;;;;;;;5070226;28;20098;-62
2021/10/23 08:02:10;;;;;;;3.25;1.60;;;;;;;;;;5074048;28;20498;-62
2021/10/23 08:04:36;;;;;;;4.35;1.50;;;;;;;;;;5074075;28;20036;-62
2021/10/23 08:07:04;;;;;;;8.70;1.58;;;;;;;;;;5073849;28;20039;-62
2021/10/23 08:09:30;;;;;;;6.90;1.90;;;;;;;;;;5070474;28;20048;-62
2021/10/23 08:11:57;;;;;;;3.55;1.40;;;;;;;;;;5053879;28;20099;-62
2021/10/23 08:14:23;;;;;;;3.25;1.50;;;;;;;;;;5054149;28;20025;-62
2021/10/23 08:16:48;;;;;;;11.27;1.67;;;;;;;;;;5054017;28;20350;-62
2021/10/23 08:19:14;;;;;;;6.03;1.67;;;;;;;;;;5053891;28;20147;-62
2021/10/23 08:21:41;;;;;;;6.28;2.05;;;;;;;;;;5053772;28;20529;-62
2021/10/23 08:24:08;;;;;;;5.15;1.58;;;;;;;;;;5053370;28;20025;-64
2021/10/23 08:26:34;;;;;;;4.72;1.67;;;;;;;;;;5035430;28;20048;-64
2021/10/23 08:29:01;;;;;;;4.45;1.55;;;;;;;;;;5053796;28;20040;-61
2021/10/23 08:31:27;;;;;;;9.63;1.52;;;;;;;;;;5053581;28;20104;-61
2021/10/23 08:33:55;;;;;;;2.75;1.33;;;;;;;;;;5053537;28;20025;-61
2021/10/23 08:36:21;;;;;;;6.88;1.50;;;;;;;;;;5053496;28;20032;-62
2021/10/23 08:38:47;;;;;;;4.82;1.50;;;;;;;;;;5053524;28;20025;-62
2021/10/23 08:41:14;;;;;;;5.53;1.30;;;;;;;;;;5053347;28;20029;-61
2021/10/23 08:43:41;;;;;;;6.82;1.55;;;;;;;;;;5053133;28;20024;-62
2021/10/23 08:46:09;;;;;;;14.27;1.63;;;;;;;;;;5053519;28;20041;-63
2021/10/23 08:48:35;;;;;;;15.52;1.70;;;;;;;;;;5053611;28;20115;-62
2021/10/23 08:51:02;;;;;;;10.15;1.70;;;;;;;;;;5053299;28;20024;-62
2021/10/23 08:53:29;;;;;;;8.38;1.95;;;;;;;;;;5053352;28;20028;-62
2021/10/23 08:55:56;;;;;;;6.78;1.40;;;;;;;;;;5052942;28;20393;-62
2021/10/23 08:58:22;;;;;;;6.13;1.30;;;;;;;;;;5053317;28;20033;-61
2021/10/23 09:00:48;;;;;;;12.43;1.70;;;;;;;;;;5035092;28;20025;-61
2021/10/23 09:03:14;;;;;;;8.95;1.70;;;;;;;;;;5052964;28;20025;-61
2021/10/23 09:05:40;;;;;;;12.52;1.50;;;;;;;;;;5053200;28;20021;-61
2021/10/23 09:08:16;;;;;;;8.00;1.70;;;;;;;;;;5052946;28;20044;-61
2021/10/23 09:10:47;;;;;;;3.70;1.33;;;;;;;;;;5034627;28;20411;-62
2021/10/23 09:13:13;;;;;;;17.90;1.90;;;;;;;;;;5059453;28;20025;-62
2021/10/23 09:15:42;;;;;;;8.27;1.60;;;;;;;;;;5058486;28;20111;-62
2021/10/23 09:18:09;;;;;;;4.55;1.38;;;;;;;;;;5052806;28;20025;-62
2021/10/23 09:20:39;;;;;;;12.38;1.50;;;;;;;;;;5052770;28;20469;-61
2021/10/23 09:23:05;;;;;;;6.63;1.50;;;;;;;;;;5052588;28;20035;-62
2021/10/23 09:25:35;;;;;;;6.38;1.50;;;;;;;;;;5052278;28;20025;-62
2021/10/23 09:28:05;;;;;;;10.27;1.63;;;;;;;;;;5057139;28;20472;-61
2021/10/23 09:30:35;;;;;;;9.68;1.98;;;;;;;;;;5062480;28;20052;-63
2021/10/23 09:33:09;;;;;;;6.22;2.13;;;;;;;;;;5062292;28;20020;-62
2021/10/23 09:35:41;;;;;;;6.90;2.28;;;;;;;;;;5066776;28;20023;-63
2021/10/23 09:38:08;;;;;;;7.72;2.30;;;;;;;;;;5065189;28;20101;-63
2021/10/23 09:40:35;;;;;;;11.45;2.65;;;;;;;;;;5055934;28;20393;-63
2021/10/23 09:43:20;;;;;;;7.43;2.38;;;;;;;;;;5071701;28;20446;-63
2021/10/23 09:45:58;;;;;;;10.82;2.60;;;;;;;;;;5071123;28;20045;-63
2021/10/23 09:48:34;;;;;;;10.73;2.53;;;;;;;;;;5066513;28;20029;-63
2021/10/23 09:51:06;;;;;;;5.38;2.03;;;;;;;;;;5063629;28;20080;-63
2021/10/23 09:53:35;;;;;;;9.80;2.75;;;;;;;;;;5061036;28;20025;-64
2021/10/23 09:56:06;;;;;;;16.65;2.40;;;;;;;;;;5065635;28;20036;-63
2021/10/23 09:58:32;;;;;;;18.67;2.63;;;;;;;;;;5059896;28;20110;-63
2021/10/23 10:00:58;;;;;;;13.45;2.40;;;;;;;;;;5066954;28;20028;-63
2021/10/23 10:03:24;;;;;;;4.32;1.88;;;;;;;;;;5042267;28;20028;-63
2021/10/23 10:05:57;;;;;;;19.35;2.13;;;;;;;;;;5065183;28;20016;-63
2021/10/23 10:08:22;;;;;;;;;;;;;;;;;;5063456;28;20041;-63
2021/10/23 10:10:49;;;;;;;12.93;2.50;;;;;;;;;;5061764;28;19904;-62
2021/10/23 10:13:16;;;;;;;9.73;1.83;;;;;;;;;;5064688;28;20025;-63
2021/10/23 10:15:46;;;;;;;9.40;2.00;;;;;;;;;;5064618;28;20039;-63
2021/10/23 10:18:14;;;;;;;10.30;2.08;;;;;;;;;;5048746;28;20044;-63
2021/10/23 10:20:42;;;;;;;15.27;2.35;;;;;;;;;;5066635;28;20082;-64
2021/10/23 10:23:10;;;;;;;15.05;2.10;;;;;;;;;;5036034;28;20013;-63
2021/10/23 10:25:37;;;;;;;10.38;2.15;;;;;;;;;;5046849;28;20123;-63
2021/10/23 10:28:11;;;;;;;16.17;2.63;;;;;;;;;;5067914;28;20035;-65
2021/10/23 10:30:39;;;;;;;12.13;2.05;;;;;;;;;;5064825;28;20056;-64
2021/10/23 10:33:28;;;;;;;6.22;2.00;;;;;;;;;;5055761;28;20061;-63
2021/10/23 10:36:14;;;;;;;8.80;2.20;;;;;;;;;;5055584;28;20120;-66
2021/10/23 10:44:08;;;;;;;8.90;2.28;;;;;;;;;;5055303;28;20039;-63
2021/10/23 10:46:53;;;;;;;7.90;2.70;;;;;;;;;;5037484;28;20024;-64
2021/10/23 10:49:37;;;;;;;19.05;2.38;;;;;;;;;;5055343;28;20091;-62
2021/10/23 10:52:23;;;;;;;8.20;2.35;;;;;;;;;;5056904;28;20025;-63
2021/10/23 10:55:08;;;;;;;23.80;2.65;;;;;;;;;;5075046;28;20127;-64
2021/10/23 10:57:54;;;;;;;12.95;2.40;;;;;;;;;;5075232;28;20344;-63
2021/10/23 11:00:20;;;;;;;8.40;2.47;;;;;;;;;;5075229;28;20029;-63
2021/10/23 11:02:45;;;;;;;15.00;2.33;;;;;;;;;;5075175;28;20035;-63
2021/10/23 11:05:21;;;;;;;10.73;2.63;;;;;;;;;;5074904;28;20024;-63
2021/10/23 11:08:06;;;;;;;13.63;2.60;;;;;;;;;;5074899;28;20444;-63
2021/10/23 11:10:48;;;;;;;12.25;2.67;;;;;;;;;;5075250;28;20030;-63
2021/10/23 11:13:27;;;;;;;11.20;2.78;;;;;;;;;;5074738;28;20023;-64
2021/10/23 11:15:53;;;;;;;12.60;2.80;;;;;;;;;;5056707;28;20354;-63
2021/10/23 11:18:20;;;;;;;11.40;2.80;;;;;;;;;;5074763;28;20495;-63
2021/10/23 11:20:47;;;;;;;7.53;2.63;;;;;;;;;;5074676;28;20025;-64
2021/10/23 11:23:21;;;;;;;20.27;3.00;;;;;;;;;;5073244;28;20468;-64
2021/10/23 11:25:47;;;;;;;8.93;2.70;;;;;;;;;;5074265;28;20052;-63
2021/10/23 11:28:13;;;;;;;11.93;3.58;;;;;;;;;;5074410;28;20044;-64
2021/10/23 11:30:45;;;;;;;10.52;4.10;;;;;;;;;;5074681;28;20016;-63
2021/10/23 11:33:13;;;;;;;8.52;3.85;;;;;;;;;;5074397;28;20027;-64
2021/10/23 11:35:44;;;;;;;9.73;3.90;;;;;;;;;;5074569;28;20025;-64
2021/10/23 11:38:21;;;;;;;14.40;4.35;;;;;;;;;;5074142;28;20024;-64
2021/10/23 11:40:47;;;;;;;15.35;4.47;;;;;;;;;;5073042;28;20074;-63
2021/10/23 11:43:14;;;;;;;12.32;4.55;;;;;;;;;;5074316;28;20112;-64
2021/10/23 11:45:40;;;;;;;14.70;4.53;;;;;;;;;;5074517;28;20036;-64
2021/10/23 11:48:07;;;;;;;11.70;4.03;;;;;;;;;;5056505;28;20033;-64
2021/10/23 11:50:35;;;;;;;17.65;4.03;;;;;;;;;;5074609;28;20091;-64
2021/10/23 11:53:19;;;;;;;9.55;4.13;;;;;;;;;;5074302;28;20032;-63
2021/10/23 11:55:45;;;;;;;14.48;4.45;;;;;;;;;;5074236;28;20024;-70
2021/10/23 11:58:13;;;;;;;12.77;4.60;;;;;;;;;;5065972;28;20021;-60
2021/10/23 12:00:40;;;;;;;12.32;4.65;;;;;;;;;;5058691;28;20074;-65
2021/10/23 12:03:08;;;;;;;20.65;3.65;;;;;;;;;;5064808;28;20045;-65
2021/10/23 12:05:49;;;;;;;13.55;3.70;;;;;;;;;;5043093;28;20036;-61
2021/10/23 12:08:24;;;;;;;10.50;3.72;;;;;;;;;;5043733;28;20107;-62
2021/10/23 12:11:02;;;;;;;11.25;3.70;;;;;;;;;;5056956;28;20483;-62
2021/10/23 12:13:48;;;;;;;17.17;3.58;;;;;;;;;;5062182;28;20025;-64
2021/10/23 12:16:16;;;;;;;13.93;3.72;;;;;;;;;;5044326;28;20028;-62
2021/10/23 12:18:46;;;;;;;14.85;3.85;;;;;;;;;;5059992;28;20028;-59
2021/10/23 12:21:19;;;;;;;6.57;3.58;;;;;;;;;;5064884;28;20016;-65
2021/10/23 12:23:46;;;;;;;8.93;3.67;;;;;;;;;;5064561;28;20044;-67
2021/10/23 12:26:13;;;;;;;10.63;3.53;;;;;;;;;;5073909;28;20106;-66
2021/10/23 12:28:55;;;;;;;13.90;3.50;;;;;;;;;;5074031;28;20025;-65
2021/10/23 12:31:21;;;;;;;12.17;3.53;;;;;;;;;;5074049;28;20031;-66
2021/10/23 12:33:59;;;;;;;9.90;3.40;;;;;;;;;;5073314;28;20032;-66
2021/10/23 12:36:25;;;;;;;9.95;3.30;;;;;;;;;;5073595;28;20384;-65
2021/10/23 12:38:51;;;;;;;13.45;3.83;;;;;;;;;;5073525;28;20028;-67
2021/10/23 12:41:17;;;;;;;12.13;3.25;;;;;;;;;;5073705;28;20039;-65
2021/10/23 12:43:43;;;;;;;10.50;3.42;;;;;;;;;;5073540;28;20032;-66
2021/10/23 12:46:11;;;;;;;8.90;3.17;;;;;;;;;;5073487;28;20071;-65
2021/10/23 12:48:37;;;;;;;16.83;3.10;;;;;;;;;;5073332;28;20048;-66
2021/10/23 12:51:04;;;;;;;10.80;2.95;;;;;;;;;;5073466;28;20028;-64
2021/10/23 12:53:30;;;;;;;7.93;3.20;;;;;;;;;;5073512;28;20048;-66
2021/10/23 12:55:55;;;;;;;8.40;2.72;;;;;;;;;;5073326;28;20392;-64
2021/10/23 12:58:21;;;;;;;9.40;3.15;;;;;;;;;;5073583;28;20044;-65
2021/10/23 13:00:48;;;;;;;8.15;3.17;;;;;;;;;;5055336;28;20040;-65
2021/10/23 13:03:16;;;;;;;13.80;3.20;;;;;;;;;;5055402;28;20513;-66
2021/10/23 13:05:42;;;;;;;5.57;2.78;;;;;;;;;;5073099;28;20040;-65
2021/10/23 13:08:08;;;;;;;8.98;2.70;;;;;;;;;;5073117;28;20047;-64
2021/10/23 13:10:34;;;;;;;6.43;2.78;;;;;;;;;;5073160;28;20017;-65
2021/10/23 13:13:00;;;;;;;8.15;3.03;;;;;;;;;;5073260;28;20044;-66
2021/10/23 13:15:26;;;;;;;7.68;3.03;;;;;;;;;;5072724;28;20071;-65
2021/10/23 13:17:53;;;;;;;8.30;2.83;;;;;;;;;;5073077;28;20456;-66
2021/10/23 13:20:19;;;;;;;8.25;2.88;;;;;;;;;;5073024;28;20099;-66
2021/10/23 13:22:45;;;;;;;8.15;2.50;;;;;;;;;;5060976;28;20025;-61
2021/10/23 13:25:12;;;;;;;7.88;3.00;;;;;;;;;;5069664;28;20444;-67
2021/10/23 13:27:38;;;;;;;6.13;2.47;;;;;;;;;;5054693;28;20053;-60
2021/10/23 13:30:04;;;;;;;5.97;2.67;;;;;;;;;;5066347;28;20487;-65
2021/10/23 13:32:30;;;;;;;7.78;2.80;;;;;;;;;;5061706;28;20037;-60
2021/10/23 13:34:56;;;;;;;10.20;2.85;;;;;;;;;;5060341;28;20358;-65
2021/10/23 13:37:22;;;;;;;9.88;2.58;;;;;;;;;;5052906;28;20071;-60
2021/10/23 13:39:48;;;;;;;6.13;2.60;;;;;;;;;;5035144;28;20021;-60
2021/10/23 13:42:14;;;;;;;4.90;2.40;;;;;;;;;;5053117;28;20354;-60
2021/10/23 13:44:40;;;;;;;6.65;2.70;;;;;;;;;;5052826;28;20029;-60
2021/10/23 13:47:06;;;;;;;5.65;2.58;;;;;;;;;;5052090;28;20076;-63
2021/10/23 13:49:32;;;;;;;7.13;2.33;;;;;;;;;;5039668;28;20392;-61
2021/10/23 13:51:58;;;;;;;9.50;2.30;;;;;;;;;;5060534;28;20558;-61
2021/10/23 13:54:24;;;;;;;9.52;2.35;;;;;;;;;;5043589;28;20110;-67
2021/10/23 13:56:50;;;;;;;5.35;2.38;;;;;;;;;;5035295;28;20036;-60
2021/10/23 13:59:16;;;;;;;7.05;2.30;;;;;;;;;;5052510;28;20033;-60
2021/10/23 14:01:43;;;;;;;2.58;2.25;;;;;;;;;;5052197;28;20087;-62
2021/10/23 14:04:10;;;;;;;5.63;2.10;;;;;;;;;;5052296;28;20492;-64
2021/10/23 14:06:36;;;;;;;6.78;2.33;;;;;;;;;;5052255;28;20036;-66
2021/10/23 14:09:02;;;;;;;4.32;1.95;;;;;;;;;;5052614;28;20037;-65
2021/10/23 14:11:28;;;;;;;10.10;2.10;;;;;;;;;;5039107;28;20067;-62
2021/10/23 14:13:54;;;;;;;9.13;2.38;;;;;;;;;;5052221;28;20025;-61
2021/10/23 14:16:21;;;;;;;31.58;2.40;;;;;;;;;;5048662;28;20029;-59
2021/10/23 14:18:47;;;;;;;5.22;2.15;;;;;;;;;;5049835;28;20373;-63
2021/10/23 14:21:14;;;;;;;4.32;2.47;;;;;;;;;;5043449;28;20737;-64
2021/10/23 14:23:40;;;;;;;6.57;2.10;;;;;;;;;;5047737;28;20103;-61
2021/10/23 14:26:06;;;;;;;6.57;1.95;;;;;;;;;;5046513;28;20053;-66
2021/10/23 14:28:39;;;;;;;11.05;2.53;;;;;;;;;;5055619;28;20361;-64
2021/10/23 14:31:05;;;;;;;8.40;2.13;;;;;;;;;;5051805;28;20442;-62
2021/10/23 14:33:31;;;;;;;5.70;2.10;;;;;;;;;;5051442;28;20036;-61
2021/10/23 14:35:57;;;;;;;5.78;2.10;;;;;;;;;;5052875;28;20404;-62
2021/10/23 14:38:23;;;;;;;8.23;2.50;;;;;;;;;;5052363;28;20021;-61
2021/10/23 14:40:49;;;;;;;15.05;2.10;;;;;;;;;;5053838;28;20027;-63
2021/10/23 14:43:15;;;;;;;11.90;1.95;;;;;;;;;;5052720;28;20021;-64
2021/10/23 14:45:42;;;;;;;4.47;2.38;;;;;;;;;;5051629;28;20028;-63